createdAt,value
2022-11-19T00:02:24.619Z,99392.69
2022-11-19T00:04:51.915Z,99388.47
2022-11-19T00:07:19.053Z,99369.66
2022-11-19T00:09:45.986Z,99395.44
2022-11-19T00:12:31.597Z,99369.66
2022-11-19T00:14:58.688Z,99396.41
2022-11-19T00:17:25.805Z,99395.53
2022-11-19T00:19:52.806Z,99351.75
2022-11-19T00:22:19.910Z,99408.28
2022-11-19T00:24:47.006Z,99385.84
2022-11-19T00:27:14.278Z,99401.00
2022-11-19T00:29:41.346Z,99386.47
2022-11-19T00:32:08.342Z,99421.16
2022-11-19T00:34:35.305Z,99385.53
2022-11-19T00:37:02.320Z,99420.59
2022-11-19T00:39:29.330Z,99397.72
2022-11-19T00:41:56.320Z,99401.00
2022-11-19T00:44:23.343Z,99413.50
2022-11-19T00:46:50.332Z,99431.91
2022-11-19T00:49:17.560Z,99430.34
2022-11-19T00:51:44.899Z,99432.13
2022-11-19T00:54:11.911Z,99382.78
2022-11-19T00:56:38.899Z,99427.94
2022-11-19T00:59:06.042Z,99437.50
2022-11-19T01:01:33.174Z,99455.88
2022-11-19T01:04:00.175Z,99400.03
2022-11-19T01:06:27.250Z,99459.03
2022-11-19T01:08:54.832Z,99461.59
2022-11-19T01:11:25.614Z,99457.06
2022-11-19T01:13:53.087Z,99486.66
2022-11-19T01:16:28.344Z,99488.41
2022-11-19T01:18:55.708Z,99476.59
2022-11-19T01:21:26.380Z,99461.50
2022-11-19T01:23:53.498Z,99469.50
2022-11-19T01:26:21.073Z,99448.56
2022-11-19T01:29:06.728Z,99480.69
2022-11-19T01:31:33.848Z,99487.56
2022-11-19T01:34:00.801Z,99492.91
2022-11-19T01:39:14.354Z,99489.94
2022-11-19T01:42:37.848Z,99490.78
2022-11-19T01:45:36.883Z,99492.50
2022-11-19T01:48:10.098Z,99506.09
2022-11-19T01:51:16.136Z,99508.09
2022-11-19T01:56:30.364Z,99515.63
2022-11-19T01:59:19.040Z,99522.94
2022-11-19T02:04:41.045Z,99527.31
2022-11-19T02:07:29.620Z,99535.41
2022-11-19T02:09:58.081Z,99536.38
2022-11-19T02:12:57.368Z,99543.66
2022-11-19T02:15:50.622Z,99536.75
2022-11-19T02:18:31.934Z,99500.31
2022-11-19T02:21:14.287Z,99517.03
2022-11-19T02:24:10.932Z,99556.16
2022-11-19T02:27:31.697Z,99547.00
2022-11-19T02:30:17.445Z,99514.28
2022-11-19T02:33:17.042Z,99520.34
2022-11-19T02:35:55.405Z,99491.53
2022-11-19T02:38:34.684Z,99525.56
2022-11-19T02:41:34.833Z,99519.78
2022-11-19T02:44:51.106Z,99526.88
2022-11-19T02:47:28.124Z,99525.09
2022-11-19T02:50:00.375Z,99505.22
2022-11-19T02:52:28.516Z,99549.38
2022-11-19T02:54:55.745Z,99533.91
2022-11-19T02:57:22.716Z,99496.53
2022-11-19T03:00:23.914Z,99557.09
2022-11-19T03:03:32.766Z,99539.53
2022-11-19T03:06:05.770Z,99554.91
2022-11-19T03:08:33.284Z,99551.19
2022-11-19T03:11:00.242Z,99551.78
2022-11-19T03:13:54.817Z,99518.69
2022-11-19T03:16:41.508Z,99558.09
2022-11-19T03:19:20.684Z,99491.19
2022-11-19T03:22:04.010Z,99548.75
2022-11-19T03:24:37.745Z,99524.97
2022-11-19T03:27:14.879Z,99522.31
2022-11-19T03:29:47.091Z,99522.22
2022-11-19T03:32:19.624Z,99560.88
2022-11-19T03:34:50.869Z,99581.88
2022-11-19T03:37:20.925Z,99570.63
2022-11-19T03:39:51.192Z,99567.97
2022-11-19T03:42:20.197Z,99561.66
2022-11-19T03:44:51.102Z,99570.03
2022-11-19T03:47:27.356Z,99561.66
2022-11-19T03:50:00.076Z,99544.56
2022-11-19T03:52:27.277Z,99570.91
2022-11-19T03:54:54.926Z,99569.25
2022-11-19T03:57:24.969Z,99576.75
2022-11-19T03:59:52.306Z,99452.22
2022-11-19T04:02:19.515Z,99532.28
2022-11-19T04:04:46.527Z,99548.25
2022-11-19T04:07:16.663Z,99586.72
2022-11-19T04:09:44.234Z,99563.75
2022-11-19T04:12:22.726Z,99587.88
2022-11-19T04:14:50.813Z,99577.03
2022-11-19T04:17:18.881Z,99559.69
2022-11-19T04:19:46.084Z,99554.91
2022-11-19T04:22:13.092Z,99567.84
2022-11-19T04:24:40.132Z,99616.28
2022-11-19T04:27:07.138Z,99602.47
2022-11-19T04:29:34.155Z,99584.34
2022-11-19T04:32:01.140Z,99600.81
2022-11-19T04:34:28.190Z,99599.75
2022-11-19T04:36:55.266Z,99637.00
2022-11-19T04:39:22.620Z,99645.91
2022-11-19T04:41:49.775Z,99618.00
2022-11-19T04:44:16.826Z,99639.91
2022-11-19T04:46:43.865Z,99654.81
2022-11-19T04:49:10.991Z,99648.06
2022-11-19T04:51:38.113Z,99640.16
2022-11-19T04:54:05.197Z,99631.19
2022-11-19T04:56:32.208Z,99598.53
2022-11-19T04:58:59.194Z,99632.63
2022-11-19T05:01:26.496Z,99597.72
2022-11-19T05:03:53.427Z,99583.44
2022-11-19T05:06:20.518Z,99622.75
2022-11-19T05:08:47.717Z,99633.19
2022-11-19T05:11:15.064Z,99610.34
2022-11-19T05:13:42.064Z,99625.88
2022-11-19T05:16:09.093Z,99582.69
2022-11-19T05:18:36.121Z,99599.53
2022-11-19T05:21:03.128Z,99577.94
2022-11-19T05:23:30.052Z,99589.78
2022-11-19T05:25:57.120Z,99625.88
2022-11-19T05:28:37.598Z,99590.13
2022-11-19T05:31:06.127Z,99614.78
2022-11-19T05:33:34.588Z,99599.88
2022-11-19T05:36:02.328Z,99615.00
2022-11-19T05:38:29.660Z,99626.94
2022-11-19T05:40:56.940Z,99591.03
2022-11-19T05:43:23.988Z,99601.31
2022-11-19T05:45:51.041Z,99600.94
2022-11-19T05:48:18.035Z,99605.25
2022-11-19T05:50:45.086Z,99636.41
2022-11-19T05:53:12.117Z,99602.91
2022-11-19T05:55:39.246Z,99637.19
2022-11-19T05:58:06.282Z,99625.53
2022-11-19T06:00:33.299Z,99642.22
2022-11-19T06:03:00.416Z,99640.88
2022-11-19T06:05:27.541Z,99610.13
2022-11-19T06:07:54.718Z,99634.44
2022-11-19T06:10:21.823Z,99605.72
2022-11-19T06:12:48.814Z,99622.09
2022-11-19T06:15:16.084Z,99611.81
2022-11-19T06:17:43.393Z,99613.59
2022-11-19T06:20:11.461Z,99620.31
2022-11-19T06:22:39.063Z,99637.69
2022-11-19T06:25:08.095Z,99617.66
2022-11-19T06:27:35.352Z,99624.09
2022-11-19T06:30:02.936Z,99663.25
2022-11-19T06:32:31.357Z,99663.41
2022-11-19T06:34:58.499Z,99679.22
2022-11-19T06:37:25.613Z,99685.06
2022-11-19T06:39:52.824Z,99686.84
2022-11-19T06:42:38.243Z,99668.41
2022-11-19T06:45:13.914Z,99670.56
2022-11-19T06:47:42.230Z,99675.91
2022-11-19T06:50:11.332Z,99615.41
2022-11-19T06:52:38.573Z,99657.13
2022-11-19T06:55:06.050Z,99651.78
2022-11-19T06:57:33.554Z,99694.22
2022-11-19T07:00:00.650Z,99667.59
2022-11-19T07:02:27.768Z,99678.84
2022-11-19T07:04:54.822Z,99713.00
2022-11-19T07:07:22.011Z,99679.28
2022-11-19T07:09:49.200Z,99702.97
2022-11-19T07:12:16.284Z,99700.50
2022-11-19T07:14:43.425Z,99721.13
2022-11-19T07:17:10.392Z,99690.94
2022-11-19T07:19:37.623Z,99749.19
2022-11-19T07:22:04.600Z,99733.75
2022-11-19T07:24:33.966Z,99723.88
2022-11-19T07:27:01.108Z,99741.22
2022-11-19T07:29:28.223Z,99744.25
2022-11-19T07:31:55.391Z,99750.66
2022-11-19T07:34:22.885Z,99760.19
2022-11-19T07:36:50.355Z,99723.66
2022-11-19T07:39:18.257Z,99744.59
2022-11-19T07:42:04.322Z,99729.38
2022-11-19T07:44:33.830Z,99763.09
2022-11-19T07:47:00.733Z,99761.22
2022-11-19T07:49:27.997Z,99756.19
2022-11-19T07:51:55.117Z,99740.00
2022-11-19T07:54:22.157Z,99765.25
2022-11-19T07:56:50.074Z,99741.38
2022-11-19T07:59:17.669Z,99726.53
2022-11-19T08:01:45.088Z,99772.28
2022-11-19T08:04:12.274Z,99746.88
2022-11-19T08:06:39.703Z,99753.56
2022-11-19T08:09:07.357Z,99726.06
2022-11-19T08:11:34.788Z,99727.81
2022-11-19T08:14:02.283Z,99716.53
2022-11-19T08:16:47.812Z,99738.28
2022-11-19T08:19:16.307Z,99761.03
2022-11-19T08:21:47.345Z,99708.59
2022-11-19T08:24:17.587Z,99704.59
2022-11-19T08:26:45.979Z,99745.78
2022-11-19T08:29:16.686Z,99731.09
2022-11-19T08:31:46.639Z,99744.97
2022-11-19T08:34:14.476Z,99707.94
2022-11-19T08:36:52.113Z,99605.94
2022-11-19T08:39:36.817Z,99732.81
2022-11-19T08:42:29.304Z,99744.78
2022-11-19T08:44:56.353Z,99697.47
2022-11-19T08:47:23.442Z,99684.63
2022-11-19T08:49:50.734Z,99694.72
2022-11-19T08:52:17.774Z,99716.22
2022-11-19T08:54:44.861Z,99735.63
2022-11-19T08:57:11.844Z,99737.13
2022-11-19T08:59:38.939Z,99720.38
2022-11-19T09:02:06.237Z,99713.44
2022-11-19T09:04:33.388Z,99698.34
2022-11-19T09:07:01.157Z,99746.81
2022-11-19T09:09:28.697Z,99739.19
2022-11-19T09:11:56.154Z,99725.00
2022-11-19T09:14:23.224Z,99703.25
2022-11-19T09:16:50.327Z,99778.63
2022-11-19T09:19:17.325Z,99754.19
2022-11-19T09:21:44.315Z,99794.59
2022-11-19T09:24:11.532Z,99761.53
2022-11-19T09:26:53.066Z,99759.97
2022-11-19T09:29:20.951Z,99775.16
2022-11-19T09:31:48.148Z,99783.59
2022-11-19T09:34:16.451Z,99784.38
2022-11-19T09:36:43.812Z,99776.28
2022-11-19T09:39:11.376Z,99748.53
2022-11-19T09:41:55.551Z,99770.78
2022-11-19T09:44:43.991Z,99747.34
2022-11-19T09:47:21.724Z,99773.00
2022-11-19T09:49:49.236Z,99784.28
2022-11-19T09:52:21.443Z,99776.19
2022-11-19T09:54:55.025Z,99764.72
2022-11-19T09:57:32.186Z,99767.41
2022-11-19T10:00:02.126Z,99745.94
2022-11-19T10:02:38.872Z,99758.72
2022-11-19T10:05:06.518Z,99770.25
2022-11-19T10:08:15.886Z,99779.31
2022-11-19T10:10:57.411Z,99768.84
2022-11-19T10:13:30.486Z,99766.88
2022-11-19T10:16:06.215Z,99765.72
2022-11-19T10:18:54.657Z,99762.97
2022-11-19T10:21:43.334Z,99758.00
2022-11-19T10:24:37.328Z,99713.63
2022-11-19T10:27:18.319Z,99692.31
2022-11-19T10:29:47.250Z,99731.91
2022-11-19T10:32:26.812Z,99735.66
2022-11-19T10:34:58.870Z,99740.78
2022-11-19T10:37:31.778Z,99715.41
2022-11-19T10:40:19.632Z,99721.59
2022-11-19T10:43:48.302Z,99711.50
2022-11-19T10:46:19.670Z,99688.44
2022-11-19T10:48:49.684Z,99676.28
2022-11-19T10:51:29.329Z,99671.13
2022-11-19T10:53:57.470Z,99703.88
2022-11-19T10:56:42.391Z,99650.97
2022-11-19T10:59:20.803Z,99707.25
2022-11-19T11:01:52.968Z,99698.19
2022-11-19T11:04:28.916Z,99690.00
2022-11-19T11:07:04.841Z,99703.69
2022-11-19T11:09:40.973Z,99705.09
2022-11-19T11:12:45.041Z,99682.22
2022-11-19T11:15:19.776Z,99685.22
2022-11-19T11:17:47.712Z,99704.78
2022-11-19T11:20:17.814Z,99697.06
2022-11-19T11:22:48.795Z,99646.72
2022-11-19T11:25:23.131Z,99686.28
2022-11-19T11:28:14.604Z,99695.53
2022-11-19T11:30:55.755Z,99691.19
2022-11-19T11:33:22.855Z,99687.47
2022-11-19T11:35:50.517Z,99690.19
2022-11-19T11:38:22.527Z,99682.38
2022-11-19T11:44:04.817Z,99582.31
2022-11-19T11:46:56.548Z,99682.84
2022-11-19T11:49:35.316Z,99634.16
2022-11-19T11:52:07.390Z,99685.03
2022-11-19T11:54:34.765Z,99638.72
2022-11-19T11:57:19.891Z,99619.06
2022-11-19T11:59:46.947Z,99649.63
2022-11-19T12:02:30.622Z,99661.09
2022-11-19T12:05:02.380Z,99631.22
2022-11-19T12:07:58.386Z,99658.06
2022-11-19T12:10:53.611Z,99629.44
2022-11-19T12:13:45.734Z,99657.38
2022-11-19T12:16:21.704Z,99643.00
2022-11-19T12:19:19.757Z,99650.06
2022-11-19T12:21:46.898Z,99657.16
2022-11-19T12:24:48.219Z,99656.47
2022-11-19T12:30:29.550Z,99665.69
2022-11-19T12:33:17.893Z,99687.09
2022-11-19T12:35:49.808Z,99683.63
2022-11-19T12:38:41.332Z,99647.59
2022-11-19T12:41:26.588Z,99682.75
2022-11-19T12:44:00.805Z,99667.13
2022-11-19T12:46:37.376Z,99650.88
2022-11-19T12:49:10.271Z,99654.34
2022-11-19T12:52:11.797Z,99635.28
2022-11-19T12:54:55.516Z,99637.38
2022-11-19T12:57:28.618Z,99637.56
2022-11-19T13:00:11.170Z,99645.19
2022-11-19T13:02:53.450Z,99611.94
2022-11-19T13:05:24.928Z,99617.59
2022-11-19T13:08:21.396Z,99627.69
2022-11-19T13:10:52.603Z,99593.84
2022-11-19T13:13:27.189Z,99641.81
2022-11-19T13:16:02.950Z,99608.22
2022-11-19T13:18:34.649Z,99629.75
2022-11-19T13:21:07.993Z,99620.41
2022-11-19T13:23:41.457Z,99589.31
2022-11-19T13:26:15.862Z,99615.25
2022-11-19T13:28:56.223Z,99590.97
2022-11-19T13:31:23.136Z,99609.94
2022-11-19T13:33:56.869Z,99604.44
2022-11-19T13:36:32.552Z,99553.22
2022-11-19T13:39:10.985Z,99608.88
2022-11-19T13:42:04.740Z,99591.88
2022-11-19T13:44:41.682Z,99598.66
2022-11-19T13:47:41.245Z,99603.19
2022-11-19T13:50:37.848Z,99602.47
2022-11-19T13:53:17.442Z,99575.19
2022-11-19T13:55:46.336Z,99592.88
2022-11-19T13:58:23.192Z,99593.94
2022-11-19T14:01:35.360Z,99589.69
2022-11-19T14:04:05.496Z,99583.56
2022-11-19T14:06:57.225Z,99576.72
2022-11-19T14:09:38.347Z,99584.72
2022-11-19T14:12:43.199Z,99571.84
2022-11-19T14:15:43.173Z,99578.47
2022-11-19T14:18:42.967Z,99562.72
2022-11-19T14:21:43.804Z,99575.03
2022-11-19T14:24:45.991Z,99582.94
2022-11-19T14:27:21.426Z,99551.38
2022-11-19T14:29:48.904Z,99575.91
2022-11-19T14:32:16.104Z,99568.28
2022-11-19T14:35:09.005Z,99572.47
2022-11-19T14:37:47.861Z,99569.09
2022-11-19T14:40:17.489Z,99570.72
2022-11-19T14:43:18.330Z,99575.22
2022-11-19T14:46:08.841Z,99568.38
2022-11-19T14:48:35.715Z,99573.91
2022-11-19T14:51:10.538Z,99565.38
2022-11-19T14:53:49.554Z,99554.28
2022-11-19T14:56:19.778Z,99516.25
2022-11-19T14:59:10.330Z,99551.53
2022-11-19T15:01:53.068Z,99550.47
2022-11-19T15:04:24.319Z,99544.47
2022-11-19T15:06:52.675Z,99533.50
2022-11-19T15:09:57.244Z,99541.41
2022-11-19T15:12:34.629Z,99520.94
2022-11-19T15:15:22.531Z,99505.81
2022-11-19T15:18:10.432Z,99537.69
2022-11-19T15:21:00.446Z,99540.75
2022-11-19T15:23:39.585Z,99541.91
2022-11-19T15:26:38.791Z,99539.19
2022-11-19T15:29:42.893Z,99523.97
2022-11-19T15:32:25.112Z,99533.22
2022-11-19T15:35:20.239Z,99535.16
2022-11-19T15:38:04.249Z,99542.53
2022-11-19T15:40:34.289Z,99541.91
2022-11-19T15:43:04.421Z,99540.13
2022-11-19T15:45:38.748Z,99521.63
2022-11-19T15:48:23.722Z,99523.97
2022-11-19T15:50:51.788Z,99522.56
2022-11-19T15:53:23.976Z,99531.47
2022-11-19T15:56:06.305Z,99513.72
2022-11-19T15:58:38.592Z,99524.84
2022-11-19T16:01:08.406Z,99523.16
2022-11-19T16:03:38.681Z,99515.28
2022-11-19T16:06:17.749Z,99511.00
2022-11-19T16:08:47.403Z,99493.63
2022-11-19T16:11:36.651Z,99479.78
2022-11-19T16:14:22.195Z,99497.31
2022-11-19T16:17:10.456Z,99504.56
2022-11-19T16:19:38.004Z,99492.03
2022-11-19T16:22:06.053Z,99505.38
2022-11-19T16:24:51.625Z,99495.72
2022-11-19T16:27:24.581Z,99488.81
2022-11-19T16:29:52.207Z,99469.31
2022-11-19T16:32:22.360Z,99417.59
2022-11-19T16:34:49.796Z,99479.38
2022-11-19T16:37:21.965Z,99474.94
2022-11-19T16:39:52.149Z,99463.53
2022-11-19T16:42:26.637Z,99402.72
2022-11-19T16:44:56.795Z,99446.47
2022-11-19T16:47:29.806Z,99431.69
2022-11-19T16:50:22.717Z,99465.78
2022-11-19T16:52:49.786Z,99477.84
2022-11-19T16:55:20.164Z,99471.72
2022-11-19T16:57:49.742Z,99469.00
2022-11-19T17:00:18.367Z,99478.56
2022-11-19T17:02:46.458Z,99442.28
2022-11-19T17:05:19.777Z,99459.91
2022-11-19T17:07:51.594Z,99427.94
2022-11-19T17:10:30.724Z,99476.22
2022-11-19T17:13:04.504Z,99447.78
2022-11-19T17:15:36.962Z,99448.72
2022-11-19T17:18:10.268Z,99453.06
2022-11-19T17:20:37.638Z,99451.22
2022-11-19T17:23:32.618Z,99450.50
2022-11-19T17:26:03.662Z,99475.59
2022-11-19T17:28:38.176Z,99475.38
2022-11-19T17:31:17.969Z,99426.91
2022-11-19T17:34:07.515Z,99430.38
2022-11-19T17:36:35.047Z,99439.63
2022-11-19T17:39:02.072Z,99435.84
2022-11-19T17:41:48.324Z,99448.72
2022-11-19T17:44:39.464Z,99406.28
2022-11-19T17:47:21.396Z,99408.44
2022-11-19T17:49:50.384Z,99421.38
2022-11-19T17:52:24.089Z,99437.16
2022-11-19T17:54:53.781Z,99435.38
2022-11-19T17:57:21.210Z,99412.50
2022-11-19T17:59:48.273Z,99441.47
2022-11-19T18:02:18.098Z,99438.91
2022-11-19T18:04:46.244Z,99436.34
2022-11-19T18:07:14.324Z,99428.59
2022-11-19T18:09:41.990Z,99436.19
2022-11-19T18:12:19.977Z,99424.75
2022-11-19T18:14:47.532Z,99404.00
2022-11-19T18:17:15.831Z,99429.34
2022-11-19T18:19:43.245Z,99431.59
2022-11-19T18:22:19.643Z,99430.06
2022-11-19T18:24:48.736Z,99433.44
2022-11-19T18:27:17.068Z,99405.69
2022-11-19T18:29:44.320Z,99392.91
2022-11-19T18:32:12.658Z,99410.28
2022-11-19T18:34:39.938Z,99427.78
2022-11-19T18:37:07.300Z,99420.88
2022-11-19T18:39:34.422Z,99385.00
2022-11-19T18:42:01.668Z,99387.50
2022-11-19T18:44:34.582Z,99378.75
2022-11-19T18:47:06.175Z,99416.75
2022-11-19T18:49:35.228Z,99408.66
2022-11-19T18:52:04.875Z,99420.31
2022-11-19T18:54:33.303Z,99389.50
2022-11-19T18:57:01.215Z,99412.66
2022-11-19T18:59:30.020Z,99407.69
2022-11-19T19:01:57.882Z,99380.97
2022-11-19T19:04:25.417Z,99375.53
2022-11-19T19:06:52.792Z,99361.53
2022-11-19T19:09:20.977Z,99375.81
2022-11-19T19:12:13.138Z,99387.94
2022-11-19T19:14:42.910Z,99356.69
2022-11-19T19:17:11.297Z,99408.56
2022-11-19T19:19:39.107Z,99401.78
2022-11-19T19:22:06.978Z,99368.81
2022-11-19T19:24:34.995Z,99372.31
2022-11-19T19:27:03.197Z,99341.53
2022-11-19T19:29:30.667Z,99381.13
2022-11-19T19:31:58.480Z,99372.66
2022-11-19T19:34:25.696Z,99380.47
2022-11-19T19:36:53.837Z,99374.41
2022-11-19T19:39:21.904Z,99371.09
2022-11-19T19:41:49.539Z,99335.44
2022-11-19T19:44:16.929Z,99336.91
2022-11-19T19:46:43.967Z,99375.22
2022-11-19T19:49:11.064Z,99371.59
2022-11-19T19:51:38.402Z,99371.84
2022-11-19T19:54:05.842Z,99370.16
2022-11-19T19:56:33.351Z,99380.47
2022-11-19T19:59:01.781Z,99366.44
2022-11-19T20:01:34.700Z,99365.00
2022-11-19T20:04:07.953Z,99360.19
2022-11-19T20:06:36.731Z,99373.38
2022-11-19T20:09:08.760Z,99391.06
2022-11-19T20:11:36.868Z,99399.69
2022-11-19T20:14:07.111Z,99371.28
2022-11-19T20:16:35.263Z,99390.75
2022-11-19T20:19:02.812Z,99385.63
2022-11-19T20:21:34.115Z,99388.97
2022-11-19T20:24:02.468Z,99329.00
2022-11-19T20:26:31.739Z,99375.72
2022-11-19T20:29:01.318Z,99397.31
2022-11-19T20:31:29.957Z,99386.31
2022-11-19T20:33:59.223Z,99371.28
2022-11-19T20:36:28.364Z,99414.25
2022-11-19T20:38:57.682Z,99370.09
2022-11-19T20:41:44.572Z,99409.91
2022-11-19T20:44:22.841Z,99397.69
2022-11-19T20:47:02.087Z,99415.34
2022-11-19T20:49:32.042Z,99412.84
2022-11-19T20:51:59.686Z,99394.44
2022-11-19T20:54:27.789Z,99409.91
2022-11-19T20:56:56.250Z,99409.09
2022-11-19T20:59:25.965Z,99415.34
2022-11-19T21:01:54.785Z,99409.38
2022-11-19T21:04:24.314Z,99403.69
2022-11-19T21:06:51.591Z,99376.28
2022-11-19T21:09:20.282Z,99417.63
2022-11-19T21:11:48.112Z,99408.94
2022-11-19T21:14:15.177Z,99396.63
2022-11-19T21:16:42.197Z,99386.19
2022-11-19T21:19:10.331Z,99417.78
2022-11-19T21:21:37.830Z,99395.75
2022-11-19T21:24:05.621Z,99415.06
2022-11-19T21:26:33.609Z,99410.78
2022-11-19T21:29:00.964Z,99387.28
2022-11-19T21:31:39.659Z,99395.03
2022-11-19T21:34:18.103Z,99406.50
2022-11-19T21:36:46.781Z,99367.69
2022-11-19T21:39:16.730Z,99415.13
2022-11-19T21:41:43.902Z,99413.88
2022-11-19T21:44:12.468Z,99422.59
2022-11-19T21:46:41.073Z,99421.69
2022-11-19T21:49:08.217Z,99423.47
2022-11-19T21:51:35.131Z,99431.19
2022-11-19T21:54:02.168Z,99432.00
2022-11-19T21:56:33.812Z,99415.44
2022-11-19T21:59:05.383Z,99402.19
2022-11-19T22:01:32.539Z,99395.84
2022-11-19T22:03:59.619Z,99398.44
2022-11-19T22:06:26.700Z,99377.16
2022-11-19T22:08:53.735Z,99414.50
2022-11-19T22:11:30.071Z,99363.66
2022-11-19T22:14:02.940Z,99397.94
2022-11-19T22:16:32.887Z,99407.00
2022-11-19T22:19:00.311Z,99355.28
2022-11-19T22:21:29.581Z,99402.72
2022-11-19T22:23:57.644Z,99399.03
2022-11-19T22:26:26.098Z,99392.88
2022-11-19T22:28:53.645Z,99409.63
2022-11-19T22:31:20.560Z,99390.38
2022-11-19T22:33:52.003Z,99385.22
2022-11-19T22:36:21.029Z,99350.03
2022-11-19T22:38:48.342Z,99411.56
2022-11-19T22:41:17.435Z,99408.31
2022-11-19T22:43:44.701Z,99391.25
2022-11-19T22:46:13.682Z,99378.00
2022-11-19T22:48:41.481Z,99302.56
2022-11-19T22:51:13.694Z,99400.66
2022-11-19T22:53:40.722Z,99358.38
2022-11-19T22:56:10.695Z,99359.56
2022-11-19T22:58:39.011Z,99403.59
2022-11-19T23:01:07.396Z,99365.16
2022-11-19T23:03:35.292Z,99363.13
2022-11-19T23:06:02.424Z,99401.28
2022-11-19T23:08:29.412Z,99397.34
2022-11-19T23:11:01.309Z,99361.19
2022-11-19T23:13:33.401Z,99408.75
2022-11-19T23:16:12.173Z,99412.59
2022-11-19T23:18:46.677Z,99379.75
2022-11-19T23:21:20.164Z,99414.25
2022-11-19T23:23:47.362Z,99377.09
2022-11-19T23:26:16.666Z,99421.16
2022-11-19T23:28:45.069Z,99407.97
2022-11-19T23:31:18.814Z,99410.56
2022-11-19T23:33:46.752Z,99402.81
2022-11-19T23:36:19.904Z,99416.00
2022-11-19T23:38:47.464Z,99399.06
2022-11-19T23:41:17.083Z,99424.72
2022-11-19T23:43:44.687Z,99430.66
2022-11-19T23:46:37.180Z,99421.00
2022-11-19T23:49:05.484Z,99396.25
2022-11-19T23:51:35.721Z,99435.88
2022-11-19T23:54:03.409Z,99429.06
2022-11-19T23:56:33.391Z,99430.59
2022-11-19T23:59:01.884Z,99428.06
